sensor_id;sensor_type;location;lat;lon;timestamp;pressure;altitude;pressure_sealevel;temperature;humidity
79236;BME280;69062;47.460;18.812;2024-01-06T00:01:15;99276.34;;;5.30;79.58
79236;BME280;69062;47.460;18.812;2024-01-06T00:03:19;99268.97;;;5.18;79.39
79236;BME280;69062;47.460;18.812;2024-01-06T00:05:22;99262.97;;;5.36;78.08
79236;BME280;69062;47.460;18.812;2024-01-06T00:07:24;99257.66;;;5.58;77.35
79236;BME280;69062;47.460;18.812;2024-01-06T00:09:27;99254.38;;;5.73;76.53
79236;BME280;69062;47.460;18.812;2024-01-06T00:11:33;99257.03;;;5.92;75.77
79236;BME280;69062;47.460;18.812;2024-01-06T00:13:36;99249.47;;;6.05;75.26
79236;BME280;69062;47.460;18.812;2024-01-06T00:15:39;99239.00;;;6.05;75.47
79236;BME280;69062;47.460;18.812;2024-01-06T00:17:45;99243.03;;;6.12;74.37
79236;BME280;69062;47.460;18.812;2024-01-06T00:19:48;99243.38;;;6.04;75.40
79236;BME280;69062;47.460;18.812;2024-01-06T00:21:54;99245.81;;;5.89;76.29
79236;BME280;69062;47.460;18.812;2024-01-06T00:23:56;99248.72;;;5.82;75.75
79236;BME280;69062;47.460;18.812;2024-01-06T00:25:59;99243.59;;;6.00;75.16
79236;BME280;69062;47.460;18.812;2024-01-06T00:28:02;99238.78;;;6.10;74.42
79236;BME280;69062;47.460;18.812;2024-01-06T00:30:05;99242.94;;;6.14;73.88
79236;BME280;69062;47.460;18.812;2024-01-06T00:32:08;99233.41;;;6.13;74.45
79236;BME280;69062;47.460;18.812;2024-01-06T00:34:11;99232.47;;;6.14;74.13
79236;BME280;69062;47.460;18.812;2024-01-06T00:36:14;99232.19;;;6.20;73.64
79236;BME280;69062;47.460;18.812;2024-01-06T00:38:18;99230.13;;;6.26;73.42
79236;BME280;69062;47.460;18.812;2024-01-06T00:40:22;99226.31;;;6.33;71.50
79236;BME280;69062;47.460;18.812;2024-01-06T00:42:25;99225.94;;;6.41;71.51
79236;BME280;69062;47.460;18.812;2024-01-06T00:44:28;99228.56;;;6.41;72.37
79236;BME280;69062;47.460;18.812;2024-01-06T00:46:30;99228.28;;;6.47;71.95
79236;BME280;69062;47.460;18.812;2024-01-06T00:48:33;99229.81;;;6.51;72.07
79236;BME280;69062;47.460;18.812;2024-01-06T00:50:36;99232.50;;;6.50;72.12
79236;BME280;69062;47.460;18.812;2024-01-06T00:52:39;99229.97;;;6.48;71.82
79236;BME280;69062;47.460;18.812;2024-01-06T00:54:41;99230.72;;;6.50;71.29
79236;BME280;69062;47.460;18.812;2024-01-06T00:56:44;99237.00;;;6.48;70.80
79236;BME280;69062;47.460;18.812;2024-01-06T00:58:47;99228.47;;;6.43;71.27
79236;BME280;69062;47.460;18.812;2024-01-06T01:00:50;99222.47;;;6.41;70.52
79236;BME280;69062;47.460;18.812;2024-01-06T01:02:53;99222.47;;;6.41;71.19
79236;BME280;69062;47.460;18.812;2024-01-06T01:04:55;99233.81;;;6.41;70.95
79236;BME280;69062;47.460;18.812;2024-01-06T01:06:59;99223.31;;;6.41;71.63
79236;BME280;69062;47.460;18.812;2024-01-06T01:09:02;99222.38;;;6.42;71.42
79236;BME280;69062;47.460;18.812;2024-01-06T01:11:06;99222.47;;;6.41;71.79
79236;BME280;69062;47.460;18.812;2024-01-06T01:13:08;99227.25;;;6.50;71.19
79236;BME280;69062;47.460;18.812;2024-01-06T01:15:11;99222.50;;;6.58;71.60
79236;BME280;69062;47.460;18.812;2024-01-06T01:17:14;99219.31;;;6.51;71.93
79236;BME280;69062;47.460;18.812;2024-01-06T01:19:17;99224.34;;;6.56;72.24
79236;BME280;69062;47.460;18.812;2024-01-06T01:21:20;99225.53;;;6.68;71.46
79236;BME280;69062;47.460;18.812;2024-01-06T01:23:23;99224.63;;;6.69;72.10
79236;BME280;69062;47.460;18.812;2024-01-06T01:25:26;99224.81;;;6.64;72.52
79236;BME280;69062;47.460;18.812;2024-01-06T01:27:28;99216.19;;;6.62;73.50
79236;BME280;69062;47.460;18.812;2024-01-06T01:29:31;99217.88;;;6.63;73.08
79236;BME280;69062;47.460;18.812;2024-01-06T01:31:34;99214.81;;;6.72;72.87
79236;BME280;69062;47.460;18.812;2024-01-06T01:33:37;99209.72;;;6.69;72.59
79236;BME280;69062;47.460;18.812;2024-01-06T01:35:40;99206.94;;;6.72;72.85
79236;BME280;69062;47.460;18.812;2024-01-06T01:37:43;99200.84;;;6.72;73.51
79236;BME280;69062;47.460;18.812;2024-01-06T01:39:46;99216.44;;;6.75;72.48
79236;BME280;69062;47.460;18.812;2024-01-06T01:41:48;99210.56;;;6.87;72.99
79236;BME280;69062;47.460;18.812;2024-01-06T01:43:51;99212.06;;;6.93;72.24
79236;BME280;69062;47.460;18.812;2024-01-06T01:46:02;99211.03;;;6.95;72.94
79236;BME280;69062;47.460;18.812;2024-01-06T01:48:05;99217.69;;;7.02;72.93
79236;BME280;69062;47.460;18.812;2024-01-06T01:50:10;99209.03;;;7.00;72.93
79236;BME280;69062;47.460;18.812;2024-01-06T01:52:15;99214.88;;;6.88;73.02
79236;BME280;69062;47.460;18.812;2024-01-06T01:54:18;99201.31;;;6.80;73.88
79236;BME280;69062;47.460;18.812;2024-01-06T01:56:21;99199.91;;;6.73;73.47
79236;BME280;69062;47.460;18.812;2024-01-06T01:58:25;99191.13;;;6.74;73.86
79236;BME280;69062;47.460;18.812;2024-01-06T02:00:28;99199.22;;;6.69;74.69
79236;BME280;69062;47.460;18.812;2024-01-06T02:02:31;99189.28;;;6.76;74.25
79236;BME280;69062;47.460;18.812;2024-01-06T02:04:35;99191.28;;;6.71;73.90
79236;BME280;69062;47.460;18.812;2024-01-06T02:06:39;99179.09;;;6.70;74.49
79236;BME280;69062;47.460;18.812;2024-01-06T02:08:42;99184.13;;;6.74;74.36
79236;BME280;69062;47.460;18.812;2024-01-06T02:10:47;99184.16;;;6.73;75.00
79236;BME280;69062;47.460;18.812;2024-01-06T02:12:50;99184.72;;;6.62;75.62
79236;BME280;69062;47.460;18.812;2024-01-06T02:14:54;99177.09;;;6.75;75.15
79236;BME280;69062;47.460;18.812;2024-01-06T02:16:57;99181.72;;;6.70;74.44
79236;BME280;69062;47.460;18.812;2024-01-06T02:19:00;99172.53;;;6.78;74.60
79236;BME280;69062;47.460;18.812;2024-01-06T02:21:03;99169.91;;;6.78;74.60
79236;BME280;69062;47.460;18.812;2024-01-06T02:23:06;99161.94;;;6.80;74.47
79236;BME280;69062;47.460;18.812;2024-01-06T02:25:09;99158.41;;;6.81;74.02
79236;BME280;69062;47.460;18.812;2024-01-06T02:27:16;99168.13;;;6.79;74.57
79236;BME280;69062;47.460;18.812;2024-01-06T02:29:19;99162.09;;;6.77;74.73
79236;BME280;69062;47.460;18.812;2024-01-06T02:31:22;99161.47;;;6.72;75.54
79236;BME280;69062;47.460;18.812;2024-01-06T02:33:26;99160.34;;;6.77;74.54
79236;BME280;69062;47.460;18.812;2024-01-06T02:35:29;99156.00;;;6.76;75.87
79236;BME280;69062;47.460;18.812;2024-01-06T02:37:32;99164.72;;;6.77;74.89
79236;BME280;69062;47.460;18.812;2024-01-06T02:39:35;99163.25;;;6.71;75.84
79236;BME280;69062;47.460;18.812;2024-01-06T02:41:37;99164.91;;;6.74;75.78
79236;BME280;69062;47.460;18.812;2024-01-06T02:43:40;99163.13;;;6.74;75.25
79236;BME280;69062;47.460;18.812;2024-01-06T02:45:43;99160.25;;;6.79;75.51
79236;BME280;69062;47.460;18.812;2024-01-06T02:47:46;99142.06;;;6.76;75.90
79236;BME280;69062;47.460;18.812;2024-01-06T02:49:48;99143.81;;;6.75;75.88
79236;BME280;69062;47.460;18.812;2024-01-06T02:51:52;99140.19;;;6.78;75.65
79236;BME280;69062;47.460;18.812;2024-01-06T02:53:55;99141.13;;;6.77;75.79
79236;BME280;69062;47.460;18.812;2024-01-06T02:55:58;99141.44;;;6.71;75.79
79236;BME280;69062;47.460;18.812;2024-01-06T02:58:02;99127.09;;;6.60;75.94
79236;BME280;69062;47.460;18.812;2024-01-06T03:00:07;99125.31;;;6.61;76.23
79236;BME280;69062;47.460;18.812;2024-01-06T03:02:11;99131.22;;;6.64;76.22
79236;BME280;69062;47.460;18.812;2024-01-06T03:04:14;99114.72;;;6.62;76.02
79236;BME280;69062;47.460;18.812;2024-01-06T03:06:16;99113.13;;;6.60;76.08
79236;BME280;69062;47.460;18.812;2024-01-06T03:08:19;99109.31;;;6.66;77.18
79236;BME280;69062;47.460;18.812;2024-01-06T03:10:23;99111.72;;;6.70;76.17
79236;BME280;69062;47.460;18.812;2024-01-06T03:12:26;99111.25;;;6.79;75.80
79236;BME280;69062;47.460;18.812;2024-01-06T03:14:29;99098.28;;;6.76;76.42
79236;BME280;69062;47.460;18.812;2024-01-06T03:16:31;99093.13;;;6.75;76.26
79236;BME280;69062;47.460;18.812;2024-01-06T03:18:36;99100.59;;;6.82;75.42
79236;BME280;69062;47.460;18.812;2024-01-06T03:20:39;99110.09;;;6.85;75.43
79236;BME280;69062;47.460;18.812;2024-01-06T03:22:42;99108.22;;;6.87;76.16
79236;BME280;69062;47.460;18.812;2024-01-06T03:24:45;99113.47;;;6.87;75.22
79236;BME280;69062;47.460;18.812;2024-01-06T03:26:48;99111.56;;;6.90;75.94
79236;BME280;69062;47.460;18.812;2024-01-06T03:28:51;99116.81;;;6.90;75.20
79236;BME280;69062;47.460;18.812;2024-01-06T03:30:56;99131.44;;;6.95;75.66
79236;BME280;69062;47.460;18.812;2024-01-06T03:32:59;99122.81;;;6.93;75.21
79236;BME280;69062;47.460;18.812;2024-01-06T03:35:02;99118.94;;;7.00;75.80
79236;BME280;69062;47.460;18.812;2024-01-06T03:37:07;99120.41;;;7.05;74.80
79236;BME280;69062;47.460;18.812;2024-01-06T03:39:11;99126.91;;;6.98;75.91
79236;BME280;69062;47.460;18.812;2024-01-06T03:41:15;99126.19;;;6.95;75.18
79236;BME280;69062;47.460;18.812;2024-01-06T03:43:18;99121.56;;;7.00;75.72
79236;BME280;69062;47.460;18.812;2024-01-06T03:45:21;99127.59;;;7.02;75.43
79236;BME280;69062;47.460;18.812;2024-01-06T03:47:24;99133.75;;;7.01;74.77
79236;BME280;69062;47.460;18.812;2024-01-06T03:49:26;99147.16;;;6.96;75.90
79236;BME280;69062;47.460;18.812;2024-01-06T03:51:30;99138.72;;;6.89;75.91
79236;BME280;69062;47.460;18.812;2024-01-06T03:53:34;99133.19;;;6.96;75.63
79236;BME280;69062;47.460;18.812;2024-01-06T03:55:37;99134.41;;;6.88;75.41
79236;BME280;69062;47.460;18.812;2024-01-06T03:57:39;99132.94;;;6.83;76.63
79236;BME280;69062;47.460;18.812;2024-01-06T03:59:42;99136.41;;;6.66;77.64
79236;BME280;69062;47.460;18.812;2024-01-06T04:01:45;99136.25;;;6.69;77.05
79236;BME280;69062;47.460;18.812;2024-01-06T04:03:48;99135.53;;;6.66;77.69
79236;BME280;69062;47.460;18.812;2024-01-06T04:05:51;99138.81;;;6.71;77.17
79236;BME280;69062;47.460;18.812;2024-01-06T04:07:54;99137.56;;;6.60;78.40
79236;BME280;69062;47.460;18.812;2024-01-06T04:09:57;99143.97;;;6.55;77.96
79236;BME280;69062;47.460;18.812;2024-01-06T04:12:00;99139.66;;;6.54;77.94
79236;BME280;69062;47.460;18.812;2024-01-06T04:14:03;99150.53;;;6.46;79.25
79236;BME280;69062;47.460;18.812;2024-01-06T04:16:07;99147.81;;;6.48;78.54
79236;BME280;69062;47.460;18.812;2024-01-06T04:18:10;99141.81;;;6.46;79.46
79236;BME280;69062;47.460;18.812;2024-01-06T04:20:13;99151.19;;;6.50;79.32
79236;BME280;69062;47.460;18.812;2024-01-06T04:22:16;99148.75;;;6.47;79.81
79236;BME280;69062;47.460;18.812;2024-01-06T04:24:19;99161.16;;;6.43;79.73
79236;BME280;69062;47.460;18.812;2024-01-06T04:26:23;99161.38;;;6.39;80.88
79236;BME280;69062;47.460;18.812;2024-01-06T04:28:26;99158.81;;;6.37;81.34
79236;BME280;69062;47.460;18.812;2024-01-06T04:30:28;99163.22;;;6.36;80.79
79236;BME280;69062;47.460;18.812;2024-01-06T04:32:31;99151.56;;;6.25;82.42
79236;BME280;69062;47.460;18.812;2024-01-06T04:34:34;99157.41;;;6.30;82.16
79236;BME280;69062;47.460;18.812;2024-01-06T04:36:38;99158.34;;;6.29;81.85
79236;BME280;69062;47.460;18.812;2024-01-06T04:38:43;99155.25;;;6.21;81.29
79236;BME280;69062;47.460;18.812;2024-01-06T04:40:46;99148.38;;;6.18;82.33
79236;BME280;69062;47.460;18.812;2024-01-06T04:42:49;99153.84;;;6.14;83.07
79236;BME280;69062;47.460;18.812;2024-01-06T04:44:53;99145.75;;;6.18;82.89
79236;BME280;69062;47.460;18.812;2024-01-06T04:46:55;99145.75;;;6.18;82.82
79236;BME280;69062;47.460;18.812;2024-01-06T04:48:58;99147.38;;;6.21;82.94
79236;BME280;69062;47.460;18.812;2024-01-06T04:51:01;99142.28;;;6.18;82.67
79236;BME280;69062;47.460;18.812;2024-01-06T04:53:06;99132.38;;;6.24;82.97
79236;BME280;69062;47.460;18.812;2024-01-06T04:55:09;99128.03;;;6.23;83.19
79236;BME280;69062;47.460;18.812;2024-01-06T04:57:11;99129.88;;;6.21;83.07
79236;BME280;69062;47.460;18.812;2024-01-06T04:59:14;99128.94;;;6.22;82.94
79236;BME280;69062;47.460;18.812;2024-01-06T05:01:17;99121.78;;;6.26;83.25
79236;BME280;69062;47.460;18.812;2024-01-06T05:03:20;99132.41;;;6.23;83.82
79236;BME280;69062;47.460;18.812;2024-01-06T05:05:23;99123.00;;;6.19;83.89
79236;BME280;69062;47.460;18.812;2024-01-06T05:07:26;99123.00;;;6.19;83.79
79236;BME280;69062;47.460;18.812;2024-01-06T05:09:31;99116.75;;;6.21;83.46
79236;BME280;69062;47.460;18.812;2024-01-06T05:11:35;99125.06;;;6.31;83.19
79236;BME280;69062;47.460;18.812;2024-01-06T05:13:39;99126.75;;;6.32;82.99
79236;BME280;69062;47.460;18.812;2024-01-06T05:15:42;99123.31;;;6.30;83.49
79236;BME280;69062;47.460;18.812;2024-01-06T05:17:44;99122.47;;;6.29;82.39
79236;BME280;69062;47.460;18.812;2024-01-06T05:19:47;99121.41;;;6.33;83.04
79236;BME280;69062;47.460;18.812;2024-01-06T05:21:50;99118.59;;;6.38;83.11
79236;BME280;69062;47.460;18.812;2024-01-06T05:23:54;99124.44;;;6.43;83.25
79236;BME280;69062;47.460;18.812;2024-01-06T05:25:56;99130.59;;;6.42;83.15
79236;BME280;69062;47.460;18.812;2024-01-06T05:27:59;99130.91;;;6.36;82.89
79236;BME280;69062;47.460;18.812;2024-01-06T05:30:02;99134.16;;;6.41;83.14
79236;BME280;69062;47.460;18.812;2024-01-06T05:32:05;99140.03;;;6.46;82.34
79236;BME280;69062;47.460;18.812;2024-01-06T05:34:08;99143.41;;;6.48;83.29
79236;BME280;69062;47.460;18.812;2024-01-06T05:36:11;99151.50;;;6.44;82.26
79236;BME280;69062;47.460;18.812;2024-01-06T05:38:14;99143.59;;;6.45;83.00
79236;BME280;69062;47.460;18.812;2024-01-06T05:40:20;99140.25;;;6.42;82.77
79236;BME280;69062;47.460;18.812;2024-01-06T05:42:23;99149.38;;;6.52;82.60
79236;BME280;69062;47.460;18.812;2024-01-06T05:44:26;99156.31;;;6.53;82.82
79236;BME280;69062;47.460;18.812;2024-01-06T05:46:29;99152.69;;;6.55;83.00
79236;BME280;69062;47.460;18.812;2024-01-06T05:48:32;99158.84;;;6.54;83.40
79236;BME280;69062;47.460;18.812;2024-01-06T05:50:35;99160.63;;;6.54;82.60
79236;BME280;69062;47.460;18.812;2024-01-06T05:52:37;99158.94;;;6.53;83.75
79236;BME280;69062;47.460;18.812;2024-01-06T05:54:44;99161.78;;;6.48;84.02
79236;BME280;69062;47.460;18.812;2024-01-06T05:57:08;99152.66;;;6.38;84.53
79236;BME280;69062;47.460;18.812;2024-01-06T05:59:11;99147.06;;;6.46;84.24
79236;BME280;69062;47.460;18.812;2024-01-06T06:01:14;99142.66;;;6.46;84.67
79236;BME280;69062;47.460;18.812;2024-01-06T06:03:17;99143.25;;;6.51;83.53
79236;BME280;69062;47.460;18.812;2024-01-06T06:05:20;99135.34;;;6.53;84.45
79236;BME280;69062;47.460;18.812;2024-01-06T06:07:22;99144.13;;;6.52;84.44
79236;BME280;69062;47.460;18.812;2024-01-06T06:09:25;99137.09;;;6.52;84.12
79236;BME280;69062;47.460;18.812;2024-01-06T06:11:30;99134.63;;;6.49;84.34
79236;BME280;69062;47.460;18.812;2024-01-06T06:13:33;99141.13;;;6.59;84.32
79236;BME280;69062;47.460;18.812;2024-01-06T06:15:36;99137.28;;;6.67;84.21
79236;BME280;69062;47.460;18.812;2024-01-06T06:17:39;99132.03;;;6.67;84.27
79236;BME280;69062;47.460;18.812;2024-01-06T06:19:42;99146.03;;;6.66;84.65
79236;BME280;69062;47.460;18.812;2024-01-06T06:21:45;99146.75;;;6.69;84.59
79236;BME280;69062;47.460;18.812;2024-01-06T06:23:49;99153.78;;;6.69;84.49
79236;BME280;69062;47.460;18.812;2024-01-06T06:25:52;99140.88;;;6.64;84.52
79236;BME280;69062;47.460;18.812;2024-01-06T06:27:55;99137.78;;;6.56;85.77
79236;BME280;69062;47.460;18.812;2024-01-06T06:29:58;99129.75;;;6.59;85.26
79236;BME280;69062;47.460;18.812;2024-01-06T06:32:00;99121.38;;;6.52;85.94
79236;BME280;69062;47.460;18.812;2024-01-06T06:34:03;99123.66;;;6.41;85.76
79236;BME280;69062;47.460;18.812;2024-01-06T06:36:10;99125.59;;;6.38;84.92
79236;BME280;69062;47.460;18.812;2024-01-06T06:38:13;99121.03;;;6.41;85.52
79236;BME280;69062;47.460;18.812;2024-01-06T06:40:16;99119.44;;;6.39;85.53
79236;BME280;69062;47.460;18.812;2024-01-06T06:42:19;99129.13;;;6.36;85.49
79236;BME280;69062;47.460;18.812;2024-01-06T06:44:21;99127.84;;;6.45;84.86
79236;BME280;69062;47.460;18.812;2024-01-06T06:46:26;99134.63;;;6.49;84.91
79236;BME280;69062;47.460;18.812;2024-01-06T06:48:28;99141.13;;;6.59;84.78
79236;BME280;69062;47.460;18.812;2024-01-06T06:50:34;99142.41;;;6.51;85.19
79236;BME280;69062;47.460;18.812;2024-01-06T06:52:37;99131.69;;;6.55;84.32
79236;BME280;69062;47.460;18.812;2024-01-06T06:54:42;99137.56;;;6.60;84.43
79236;BME280;69062;47.460;18.812;2024-01-06T06:56:45;99133.94;;;6.63;85.05
79236;BME280;69062;47.460;18.812;2024-01-06T06:58:50;99134.47;;;6.70;83.65
79236;BME280;69062;47.460;18.812;2024-01-06T07:00:55;99128.84;;;6.77;84.55
79236;BME280;69062;47.460;18.812;2024-01-06T07:02:58;99132.19;;;6.81;84.64
79236;BME280;69062;47.460;18.812;2024-01-06T07:05:01;99121.75;;;6.79;84.77
79236;BME280;69062;47.460;18.812;2024-01-06T07:07:04;99123.50;;;6.79;85.33
79236;BME280;69062;47.460;18.812;2024-01-06T07:09:07;99136.25;;;6.86;83.86
79236;BME280;69062;47.460;18.812;2024-01-06T07:11:09;99127.28;;;6.73;85.31
79236;BME280;69062;47.460;18.812;2024-01-06T07:13:14;99126.16;;;6.61;85.56
79236;BME280;69062;47.460;18.812;2024-01-06T07:15:17;99108.78;;;6.59;84.68
79236;BME280;69062;47.460;18.812;2024-01-06T07:17:19;99121.97;;;6.57;85.41
79236;BME280;69062;47.460;18.812;2024-01-06T07:19:22;99118.91;;;6.67;85.45
79236;BME280;69062;47.460;18.812;2024-01-06T07:21:25;99114.34;;;6.53;86.28
79236;BME280;69062;47.460;18.812;2024-01-06T07:23:28;99125.38;;;6.59;85.72
79236;BME280;69062;47.460;18.812;2024-01-06T07:25:31;99121.13;;;6.57;85.61
79236;BME280;69062;47.460;18.812;2024-01-06T07:27:34;99126.16;;;6.61;86.19
79236;BME280;69062;47.460;18.812;2024-01-06T07:29:36;99125.31;;;6.61;85.86
79236;BME280;69062;47.460;18.812;2024-01-06T07:31:40;99128.47;;;6.68;85.80
79236;BME280;69062;47.460;18.812;2024-01-06T07:33:43;99129.69;;;6.78;86.15
79236;BME280;69062;47.460;18.812;2024-01-06T07:35:46;99118.34;;;6.77;85.93
79236;BME280;69062;47.460;18.812;2024-01-06T07:37:48;99111.78;;;6.86;86.19
79236;BME280;69062;47.460;18.812;2024-01-06T07:39:51;99106.13;;;6.94;86.03
79236;BME280;69062;47.460;18.812;2024-01-06T07:41:54;99106.66;;;7.00;86.01
79236;BME280;69062;47.460;18.812;2024-01-06T07:43:57;99104.81;;;7.02;85.29
79236;BME280;69062;47.460;18.812;2024-01-06T07:46:00;99108.44;;;7.00;85.24
79236;BME280;69062;47.460;18.812;2024-01-06T07:48:03;99106.19;;;7.09;85.89
79236;BME280;69062;47.460;18.812;2024-01-06T07:50:06;99106.78;;;7.14;85.54
79236;BME280;69062;47.460;18.812;2024-01-06T07:52:09;99097.22;;;7.13;85.40
79236;BME280;69062;47.460;18.812;2024-01-06T07:54:12;99103.06;;;7.03;86.04
79236;BME280;69062;47.460;18.812;2024-01-06T07:56:15;99098.84;;;7.16;85.79
79236;BME280;69062;47.460;18.812;2024-01-06T07:58:17;99105.28;;;7.10;85.81
79236;BME280;69062;47.460;18.812;2024-01-06T08:00:20;99107.97;;;7.09;86.17
79236;BME280;69062;47.460;18.812;2024-01-06T08:02:23;99114.53;;;7.17;85.45
79236;BME280;69062;47.460;18.812;2024-01-06T08:04:26;99114.88;;;7.27;84.51
79236;BME280;69062;47.460;18.812;2024-01-06T08:06:29;99109.31;;;7.33;84.95
79236;BME280;69062;47.460;18.812;2024-01-06T08:08:31;99106.00;;;7.30;85.27
79236;BME280;69062;47.460;18.812;2024-01-06T08:10:34;99113.03;;;7.29;85.44
79236;BME280;69062;47.460;18.812;2024-01-06T08:12:37;99111.06;;;7.17;85.23
79236;BME280;69062;47.460;18.812;2024-01-06T08:14:40;99103.50;;;7.11;84.97
79236;BME280;69062;47.460;18.812;2024-01-06T08:16:43;99114.28;;;7.22;84.62
79236;BME280;69062;47.460;18.812;2024-01-06T08:18:46;99111.06;;;7.17;85.19
79236;BME280;69062;47.460;18.812;2024-01-06T08:20:49;99111.72;;;7.21;84.70
79236;BME280;69062;47.460;18.812;2024-01-06T08:22:54;99116.31;;;7.17;84.62
79236;BME280;69062;47.460;18.812;2024-01-06T08:24:57;99111.91;;;7.17;84.64
79236;BME280;69062;47.460;18.812;2024-01-06T08:27:00;99114.72;;;7.30;84.29
79236;BME280;69062;47.460;18.812;2024-01-06T08:29:03;99116.97;;;7.21;84.34
79236;BME280;69062;47.460;18.812;2024-01-06T08:31:05;99120.38;;;7.23;84.94
79236;BME280;69062;47.460;18.812;2024-01-06T08:33:08;99120.13;;;7.27;84.72
79236;BME280;69062;47.460;18.812;2024-01-06T08:35:11;99120.81;;;7.31;84.72
79236;BME280;69062;47.460;18.812;2024-01-06T08:37:15;99125.88;;;7.18;84.01
79236;BME280;69062;47.460;18.812;2024-01-06T08:39:19;99115.81;;;7.26;83.77
79236;BME280;69062;47.460;18.812;2024-01-06T08:41:21;99122.06;;;7.24;84.38
79236;BME280;69062;47.460;18.812;2024-01-06T08:43:25;99121.63;;;7.15;85.31
79236;BME280;69062;47.460;18.812;2024-01-06T08:45:28;99127.81;;;7.14;85.13
79236;BME280;69062;47.460;18.812;2024-01-06T08:47:31;99121.38;;;7.20;85.28
79236;BME280;69062;47.460;18.812;2024-01-06T08:49:35;99122.22;;;7.21;85.94
79236;BME280;69062;47.460;18.812;2024-01-06T08:51:38;99123.78;;;7.25;86.77
79236;BME280;69062;47.460;18.812;2024-01-06T08:53:40;99129.63;;;7.30;85.65
79236;BME280;69062;47.460;18.812;2024-01-06T08:55:43;99125.91;;;7.34;85.29
79236;BME280;69062;47.460;18.812;2024-01-06T08:57:49;99121.28;;;7.39;85.49
79236;BME280;69062;47.460;18.812;2024-01-06T08:59:51;99132.53;;;7.41;84.65
79236;BME280;69062;47.460;18.812;2024-01-06T09:01:54;99134.06;;;7.45;85.12
79236;BME280;69062;47.460;18.812;2024-01-06T09:03:58;99132.38;;;7.44;84.39
79236;BME280;69062;47.460;18.812;2024-01-06T09:06:01;99130.75;;;7.41;83.46
79236;BME280;69062;47.460;18.812;2024-01-06T09:08:04;99130.41;;;7.32;84.77
79236;BME280;69062;47.460;18.812;2024-01-06T09:10:07;99131.59;;;7.42;84.40
79236;BME280;69062;47.460;18.812;2024-01-06T09:12:12;99127.13;;;7.44;84.07
79236;BME280;69062;47.460;18.812;2024-01-06T09:14:16;99122.88;;;7.41;84.19
79236;BME280;69062;47.460;18.812;2024-01-06T09:16:19;99115.56;;;7.31;84.06
79236;BME280;69062;47.460;18.812;2024-01-06T09:18:22;99117.94;;;7.35;84.00
79236;BME280;69062;47.460;18.812;2024-01-06T09:20:25;99116.25;;;7.34;84.01
79236;BME280;69062;47.460;18.812;2024-01-06T09:22:29;99109.00;;;7.39;83.59
79236;BME280;69062;47.460;18.812;2024-01-06T09:24:32;99111.53;;;7.41;84.43
79236;BME280;69062;47.460;18.812;2024-01-06T09:26:36;99119.41;;;7.41;84.40
79236;BME280;69062;47.460;18.812;2024-01-06T09:28:39;99121.34;;;7.37;84.40
79236;BME280;69062;47.460;18.812;2024-01-06T09:30:42;99119.72;;;7.35;84.33
79236;BME280;69062;47.460;18.812;2024-01-06T09:32:44;99120.56;;;7.35;84.12
79236;BME280;69062;47.460;18.812;2024-01-06T09:34:49;99117.03;;;7.36;84.16
79236;BME280;69062;47.460;18.812;2024-01-06T09:36:52;99117.03;;;7.36;84.59
79236;BME280;69062;47.460;18.812;2024-01-06T09:38:55;99112.38;;;7.41;84.62
79236;BME280;69062;47.460;18.812;2024-01-06T09:40:58;99119.84;;;7.49;84.13
79236;BME280;69062;47.460;18.812;2024-01-06T09:43:00;99111.78;;;7.52;84.26
79236;BME280;69062;47.460;18.812;2024-01-06T09:45:06;99115.84;;;7.42;84.45
79236;BME280;69062;47.460;18.812;2024-01-06T09:47:12;99116.19;;;7.52;84.34
79236;BME280;69062;47.460;18.812;2024-01-06T09:49:14;99116.81;;;7.57;84.16
79236;BME280;69062;47.460;18.812;2024-01-06T09:51:19;99114.78;;;7.62;83.96
79236;BME280;69062;47.460;18.812;2024-01-06T09:53:27;99122.16;;;7.55;84.77
79236;BME280;69062;47.460;18.812;2024-01-06T09:55:31;99114.00;;;7.60;83.98
79236;BME280;69062;47.460;18.812;2024-01-06T09:57:34;99114.84;;;7.60;83.66
79236;BME280;69062;47.460;18.812;2024-01-06T09:59:36;99124.19;;;7.66;84.29
79236;BME280;69062;47.460;18.812;2024-01-06T10:01:40;99125.03;;;7.66;84.56
79236;BME280;69062;47.460;18.812;2024-01-06T10:03:43;99125.03;;;7.66;84.74
79236;BME280;69062;47.460;18.812;2024-01-06T10:05:48;99127.84;;;7.63;85.19
79236;BME280;69062;47.460;18.812;2024-01-06T10:07:51;99129.53;;;7.64;84.40
79236;BME280;69062;47.460;18.812;2024-01-06T10:09:55;99137.06;;;7.70;84.66
79236;BME280;69062;47.460;18.812;2024-01-06T10:11:58;99139.84;;;7.67;84.53
79236;BME280;69062;47.460;18.812;2024-01-06T10:14:03;99131.97;;;7.67;84.62
79236;BME280;69062;47.460;18.812;2024-01-06T10:16:06;99134.53;;;7.69;83.96
79236;BME280;69062;47.460;18.812;2024-01-06T10:18:09;99146.78;;;7.53;85.29
79236;BME280;69062;47.460;18.812;2024-01-06T10:20:13;99147.06;;;7.48;86.20
79236;BME280;69062;47.460;18.812;2024-01-06T10:22:16;99143.91;;;7.41;86.01
79236;BME280;69062;47.460;18.812;2024-01-06T10:24:19;99135.41;;;7.36;86.18
79236;BME280;69062;47.460;18.812;2024-01-06T10:26:22;99126.03;;;7.15;86.81
79236;BME280;69062;47.460;18.812;2024-01-06T10:28:26;99125.09;;;7.16;87.81
79236;BME280;69062;47.460;18.812;2024-01-06T10:30:29;99120.00;;;7.13;87.80
79236;BME280;69062;47.460;18.812;2024-01-06T10:32:33;99103.72;;;7.06;88.38
79236;BME280;69062;47.460;18.812;2024-01-06T10:34:36;99104.56;;;7.07;87.63
79236;BME280;69062;47.460;18.812;2024-01-06T10:36:40;99109.22;;;7.02;88.54
79236;BME280;69062;47.460;18.812;2024-01-06T10:38:44;99100.16;;;7.07;88.57
79236;BME280;69062;47.460;18.812;2024-01-06T10:40:59;99102.34;;;6.99;88.85
79236;BME280;69062;47.460;18.812;2024-01-06T10:43:03;99092.16;;;7.10;88.02
79236;BME280;69062;47.460;18.812;2024-01-06T10:45:08;99083.78;;;7.19;87.23
79236;BME280;69062;47.460;18.812;2024-01-06T10:47:13;99078.66;;;7.34;86.54
79236;BME280;69062;47.460;18.812;2024-01-06T10:49:19;99067.03;;;7.38;86.21
79236;BME280;69062;47.460;18.812;2024-01-06T10:51:25;99061.44;;;7.44;86.63
79236;BME280;69062;47.460;18.812;2024-01-06T10:53:29;99062.38;;;7.43;86.72